Time;durP1;ratioP1;P1;durP2;ratioP2;P2;SDS_P1;SDS_P2;PMS_P1;PMS_P2;Temp;Humidity;BMP_temperature;BMP_pressure;BME280_temperature;BME280_humidity;BME280_pressure;Samples;Min_cycle;Max_cycle;Signal;HPM_P1;HPM_P2
2021/08/04 00:01:44;;;;;;;2.35;1.25;;;25.00;53.30;;;;;;5026405;28;20041;-64
2021/08/04 00:04:10;;;;;;;2.35;1.10;;;25.00;53.40;;;;;;5027019;28;20454;-63
2021/08/04 00:06:37;;;;;;;2.50;1.20;;;25.00;53.30;;;;;;5023201;28;20036;-64
2021/08/04 00:09:03;;;;;;;1.40;1.00;;;25.00;53.40;;;;;;5016777;28;20026;-64
2021/08/04 00:11:29;;;;;;;2.22;1.10;;;25.00;53.30;;;;;;5026472;28;20444;-63
2021/08/04 00:13:54;;;;;;;4.10;1.27;;;24.90;53.30;;;;;;5030822;28;20036;-65
2021/08/04 00:16:20;;;;;;;3.72;1.38;;;25.00;53.40;;;;;;5025549;28;20171;-63
2021/08/04 00:18:45;;;;;;;2.67;1.23;;;24.90;53.40;;;;;;5025689;28;20095;-62
2021/08/04 00:21:11;;;;;;;2.60;1.17;;;24.90;53.40;;;;;;5027970;28;20465;-62
2021/08/04 00:23:37;;;;;;;2.13;1.25;;;24.90;53.30;;;;;;5028193;28;20029;-62
2021/08/04 00:26:02;;;;;;;1.90;1.13;;;24.90;53.30;;;;;;5025901;28;20033;-61
2021/08/04 00:28:28;;;;;;;2.20;1.00;;;24.90;53.30;;;;;;5026696;28;20238;-64
2021/08/04 00:30:53;;;;;;;2.95;1.20;;;24.90;53.40;;;;;;5027314;28;20045;-65
2021/08/04 00:33:19;;;;;;;3.08;1.20;;;24.90;53.40;;;;;;5023833;28;20029;-64
2021/08/04 00:35:45;;;;;;;1.80;1.10;;;24.90;53.40;;;;;;5026312;28;20029;-62
2021/08/04 00:38:12;;;;;;;2.10;1.10;;;24.90;53.40;;;;;;5027712;28;20354;-64
2021/08/04 00:40:39;;;;;;;2.22;1.20;;;24.90;53.40;;;;;;5024635;28;20060;-65
2021/08/04 00:43:06;;;;;;;2.45;1.27;;;24.90;53.40;;;;;;5023219;28;20048;-65
2021/08/04 00:45:35;;;;;;;2.38;1.35;;;24.90;53.40;;;;;;5030426;28;20056;-62
2021/08/04 00:48:02;;;;;;;2.25;1.30;;;24.80;53.40;;;;;;5029390;28;20034;-65
2021/08/04 00:50:28;;;;;;;2.28;1.10;;;24.80;53.40;;;;;;5022080;28;20195;-64
2021/08/04 00:52:53;;;;;;;2.75;1.30;;;24.90;53.40;;;;;;5023733;28;20025;-59
2021/08/04 00:55:19;;;;;;;1.50;0.88;;;24.80;53.40;;;;;;5025624;28;20362;-62
2021/08/04 00:57:45;;;;;;;2.40;1.20;;;24.80;53.40;;;;;;5027140;28;20108;-65
2021/08/04 01:00:11;;;;;;;2.08;1.25;;;24.80;53.40;;;;;;5023432;28;20037;-64
2021/08/04 01:02:40;;;;;;;2.15;1.10;;;24.80;53.40;;;;;;5029022;28;20112;-65
2021/08/04 01:05:14;;;;;;;2.97;1.20;;;24.80;53.40;;;;;;5023720;28;20457;-63
2021/08/04 01:07:45;;;;;;;2.33;1.10;;;24.80;53.40;;;;;;5026443;28;20048;-65
2021/08/04 01:10:21;;;;;;;2.33;1.20;;;24.80;53.40;;;;;;5018263;28;20320;-63
2021/08/04 01:12:57;;;;;;;2.22;1.10;;;24.80;53.40;;;;;;5018591;28;20033;-64
2021/08/04 01:15:24;;;;;;;2.03;1.10;;;24.80;53.40;;;;;;5027394;28;20040;-63
2021/08/04 01:17:52;;;;;;;1.85;1.00;;;24.80;53.40;;;;;;5031762;28;20025;-60
2021/08/04 01:20:24;;;;;;;1.42;0.88;;;24.70;53.40;;;;;;5032875;28;20116;-62
2021/08/04 01:22:54;;;;;;;2.08;1.00;;;24.80;53.50;;;;;;5044599;28;20037;-64
2021/08/04 01:25:25;;;;;;;2.30;1.10;;;24.80;53.50;;;;;;5025482;28;20030;-61
2021/08/04 01:28:14;;;;;;;2.30;1.10;;;24.70;53.40;;;;;;5021909;28;20175;-63
2021/08/04 01:30:40;;;;;;;;;;;24.80;53.40;;;;;;5028025;28;20051;-65
2021/08/04 01:33:06;;;;;;;2.20;1.10;;;24.80;53.50;;;;;;5036490;28;19912;-61
2021/08/04 01:35:33;;;;;;;2.03;1.20;;;24.70;53.40;;;;;;5025757;28;20091;-65
2021/08/04 01:38:00;;;;;;;3.15;1.30;;;24.70;53.40;;;;;;5026877;28;20622;-60
2021/08/04 01:40:27;;;;;;;1.60;0.90;;;24.70;53.40;;;;;;5026444;28;20714;-65
2021/08/04 01:42:53;;;;;;;2.15;1.10;;;24.70;53.40;;;;;;5037129;28;20060;-63
2021/08/04 01:45:20;;;;;;;2.13;1.10;;;24.70;53.40;;;;;;5023781;28;20045;-62
2021/08/04 01:47:46;;;;;;;1.83;1.20;;;24.70;53.40;;;;;;5022773;28;20036;-62
2021/08/04 01:50:13;;;;;;;3.05;1.30;;;24.70;53.40;;;;;;5032937;28;20021;-62
2021/08/04 01:52:39;;;;;;;1.90;1.20;;;24.70;53.40;;;;;;5028160;28;20025;-62
2021/08/04 01:55:07;;;;;;;2.22;1.10;;;24.70;53.40;;;;;;5033532;28;20038;-65
2021/08/04 01:57:33;;;;;;;2.03;1.13;;;24.60;53.40;;;;;;5027274;28;20025;-63
2021/08/04 01:59:58;;;;;;;1.85;1.10;;;24.70;53.40;;;;;;5023671;28;20664;-65
2021/08/04 02:02:24;;;;;;;1.75;1.00;;;24.60;53.40;;;;;;5024138;28;20091;-64
2021/08/04 02:04:51;;;;;;;2.03;1.08;;;24.70;53.50;;;;;;5027370;28;20026;-60
2021/08/04 02:07:41;;;;;;;1.60;0.90;;;24.60;53.40;;;;;;5033568;28;20112;-61
2021/08/04 02:10:10;;;;;;;2.10;1.10;;;24.60;53.40;;;;;;5024338;28;20053;-65
2021/08/04 02:12:41;;;;;;;2.08;1.30;;;24.60;53.40;;;;;;5031713;28;20418;-62
2021/08/04 02:15:11;;;;;;;2.15;1.10;;;24.60;53.40;;;;;;5032345;28;20517;-64
2021/08/04 02:17:43;;;;;;;;;;;24.60;53.40;;;;;;5028080;28;20129;-61
2021/08/04 02:20:37;;;;;;;2.33;1.17;;;24.60;53.50;;;;;;5014150;28;20642;-65
2021/08/04 02:23:21;;;;;;;1.88;1.20;;;24.60;53.40;;;;;;5028731;28;20360;-59
2021/08/04 02:25:55;;;;;;;1.60;1.00;;;24.60;53.40;;;;;;5028374;28;20033;-64
2021/08/04 02:28:30;;;;;;;1.80;1.20;;;24.60;53.40;;;;;;5028791;28;20088;-59
2021/08/04 02:30:56;;;;;;;1.35;0.93;;;24.60;53.40;;;;;;5028888;28;20088;-63
2021/08/04 02:33:22;;;;;;;2.40;1.20;;;24.60;53.40;;;;;;5028013;28;20044;-64
2021/08/04 02:35:48;;;;;;;3.13;1.33;;;24.60;54.00;;;;;;5029517;28;20036;-62
2021/08/04 02:38:15;;;;;;;2.03;1.30;;;24.60;53.50;;;;;;5023637;28;20033;-65
2021/08/04 02:40:42;;;;;;;2.35;1.10;;;24.60;53.50;;;;;;5021101;28;20037;-64
2021/08/04 02:43:08;;;;;;;2.00;1.08;;;24.60;53.50;;;;;;5030992;28;20129;-63
2021/08/04 02:45:34;;;;;;;2.10;1.15;;;24.60;53.50;;;;;;5028485;28;20030;-65
2021/08/04 02:48:00;;;;;;;2.13;1.00;;;24.60;53.50;;;;;;5026698;28;20067;-58
2021/08/04 02:50:28;;;;;;;1.73;1.10;;;24.60;53.50;;;;;;5026175;28;20021;-64
2021/08/04 02:52:54;;;;;;;1.95;1.02;;;24.50;53.90;;;;;;5029773;28;20108;-64
2021/08/04 02:55:21;;;;;;;1.52;0.90;;;24.60;53.50;;;;;;5027857;28;20125;-63
2021/08/04 02:57:47;;;;;;;2.03;1.08;;;24.50;53.40;;;;;;5028214;28;20051;-65
2021/08/04 03:00:13;;;;;;;1.95;1.23;;;24.50;53.50;;;;;;5033670;28;20138;-64
2021/08/04 03:02:38;;;;;;;2.38;0.93;;;24.50;53.40;;;;;;5026682;28;20792;-63
2021/08/04 03:05:05;;;;;;;1.23;0.80;;;24.50;53.50;;;;;;5036339;28;20041;-64
2021/08/04 03:07:31;;;;;;;1.58;0.90;;;24.50;53.50;;;;;;5043180;28;20036;-61
2021/08/04 03:09:57;;;;;;;1.85;1.05;;;24.50;53.50;;;;;;5033159;28;20026;-62
2021/08/04 03:12:23;;;;;;;2.33;1.10;;;24.50;53.50;;;;;;5025542;28;20044;-65
2021/08/04 03:14:49;;;;;;;1.92;1.02;;;24.50;53.50;;;;;;5030455;28;20038;-63
2021/08/04 03:17:14;;;;;;;2.33;1.10;;;24.50;53.50;;;;;;5028103;28;20477;-61
2021/08/04 03:19:40;;;;;;;1.85;0.90;;;24.50;53.50;;;;;;5029901;28;20132;-63
2021/08/04 03:22:06;;;;;;;2.25;1.10;;;24.50;53.50;;;;;;5021696;28;20406;-64
2021/08/04 03:24:31;;;;;;;1.95;1.00;;;24.50;53.50;;;;;;5029113;28;20339;-64
2021/08/04 03:26:57;;;;;;;1.75;1.02;;;24.50;54.00;;;;;;5026426;28;20049;-62
2021/08/04 03:29:22;;;;;;;1.83;1.10;;;24.50;53.50;;;;;;5034766;28;20477;-62
2021/08/04 03:31:48;;;;;;;2.03;0.90;;;24.50;53.50;;;;;;5029878;28;20030;-57
2021/08/04 03:34:14;;;;;;;1.25;0.80;;;24.50;53.60;;;;;;5029092;28;20031;-63
2021/08/04 03:36:39;;;;;;;2.40;1.05;;;24.40;53.60;;;;;;5027584;28;20122;-64
2021/08/04 03:39:05;;;;;;;1.30;0.80;;;24.40;53.50;;;;;;5030114;28;20721;-62
2021/08/04 03:41:31;;;;;;;1.90;1.25;;;24.40;53.50;;;;;;5034616;28;20029;-65
2021/08/04 03:43:56;;;;;;;2.28;1.10;;;24.40;53.50;;;;;;5029167;28;20029;-64
2021/08/04 03:46:22;;;;;;;2.05;1.00;;;24.40;53.50;;;;;;5032003;28;20102;-65
2021/08/04 03:48:47;;;;;;;1.05;0.90;;;24.40;53.50;;;;;;5031244;28;20363;-63
2021/08/04 03:51:13;;;;;;;1.65;1.00;;;24.40;53.60;;;;;;5028597;28;20829;-62
2021/08/04 03:53:39;;;;;;;1.65;1.00;;;24.40;53.60;;;;;;5029323;28;20045;-62
2021/08/04 03:56:04;;;;;;;1.75;1.17;;;24.40;53.60;;;;;;5024431;28;20041;-63
2021/08/04 03:58:30;;;;;;;1.52;1.00;;;24.40;53.60;;;;;;5033644;28;20037;-62
2021/08/04 04:00:56;;;;;;;1.88;1.00;;;24.40;53.60;;;;;;5027860;28;20486;-60
2021/08/04 04:03:21;;;;;;;1.42;0.90;;;24.40;53.60;;;;;;5033204;28;20040;-63
2021/08/04 04:05:47;;;;;;;1.52;0.90;;;24.40;53.60;;;;;;5027584;28;20025;-61
2021/08/04 04:08:12;;;;;;;1.77;1.00;;;24.40;53.60;;;;;;5029631;28;20366;-60
2021/08/04 04:10:38;;;;;;;1.30;0.80;;;24.30;53.50;;;;;;5016234;28;20128;-64
2021/08/04 04:13:04;;;;;;;2.33;1.15;;;24.40;53.60;;;;;;5025210;28;20339;-61
2021/08/04 04:15:29;;;;;;;1.60;1.00;;;24.40;53.60;;;;;;5024226;28;20029;-62
2021/08/04 04:17:55;;;;;;;1.30;0.90;;;24.40;53.60;;;;;;5020019;28;20033;-62
2021/08/04 04:20:21;;;;;;;1.55;1.13;;;24.40;53.60;;;;;;5017764;28;20032;-62
2021/08/04 04:22:46;;;;;;;1.85;1.00;;;24.30;53.60;;;;;;5017335;28;20022;-64
2021/08/04 04:25:13;;;;;;;1.80;1.10;;;24.30;53.60;;;;;;5019178;28;20030;-62
2021/08/04 04:27:40;;;;;;;1.48;0.90;;;24.30;53.60;;;;;;5019406;28;20421;-61
2021/08/04 04:30:07;;;;;;;1.08;0.82;;;24.30;53.60;;;;;;5015573;28;20107;-61
2021/08/04 04:32:32;;;;;;;1.00;0.70;;;24.30;53.60;;;;;;5014206;28;20120;-58
2021/08/04 04:34:58;;;;;;;1.35;0.90;;;24.30;53.60;;;;;;5021265;28;20477;-61
2021/08/04 04:37:24;;;;;;;1.85;0.90;;;24.30;53.60;;;;;;5021517;28;20107;-61
2021/08/04 04:39:50;;;;;;;1.90;1.00;;;24.30;53.60;;;;;;5011546;28;20083;-63
2021/08/04 04:42:15;;;;;;;1.35;0.90;;;24.30;53.60;;;;;;5008712;28;20552;-61
2021/08/04 04:44:41;;;;;;;1.92;1.05;;;24.30;53.60;;;;;;5019363;28;20512;-60
2021/08/04 04:47:06;;;;;;;1.73;1.00;;;24.30;53.60;;;;;;5022782;28;20142;-61
2021/08/04 04:49:32;;;;;;;1.58;1.00;;;24.30;53.60;;;;;;5011767;28;20450;-61
2021/08/04 04:51:58;;;;;;;1.63;0.80;;;24.30;53.50;;;;;;5014772;28;20041;-62
2021/08/04 04:54:23;;;;;;;1.52;0.90;;;24.30;53.50;;;;;;5016303;28;20100;-62
2021/08/04 04:56:50;;;;;;;1.38;0.90;;;24.30;53.50;;;;;;5006974;28;20022;-62
2021/08/04 04:59:15;;;;;;;1.63;0.95;;;24.30;53.50;;;;;;5009662;28;20028;-62
2021/08/04 05:01:41;;;;;;;1.55;1.00;;;24.30;53.50;;;;;;5016464;28;20041;-62
2021/08/04 05:04:07;;;;;;;2.20;1.00;;;24.30;53.50;;;;;;5022153;28;20049;-58
2021/08/04 05:06:34;;;;;;;2.42;0.98;;;24.30;53.50;;;;;;5018671;28;20022;-63
2021/08/04 05:09:00;;;;;;;2.17;1.00;;;24.30;53.50;;;;;;5012476;28;20033;-64
2021/08/04 05:11:26;;;;;;;1.33;0.80;;;24.30;53.50;;;;;;5008075;28;20030;-63
2021/08/04 05:13:51;;;;;;;1.48;0.98;;;24.30;53.50;;;;;;5010674;28;20520;-62
2021/08/04 05:16:17;;;;;;;1.23;0.80;;;24.30;53.50;;;;;;5016479;28;20033;-62
2021/08/04 05:18:42;;;;;;;1.88;0.88;;;24.30;53.50;;;;;;5023984;28;20033;-63
2021/08/04 05:21:08;;;;;;;2.55;0.82;;;24.30;53.50;;;;;;5031254;28;20143;-63
2021/08/04 05:23:33;;;;;;;1.67;1.00;;;24.20;53.40;;;;;;5026139;28;20124;-59
2021/08/04 05:25:59;;;;;;;1.55;0.90;;;24.20;53.40;;;;;;5027095;28;20033;-63
2021/08/04 05:28:24;;;;;;;1.55;1.00;;;24.20;53.40;;;;;;5016194;28;20174;-62
2021/08/04 05:30:50;;;;;;;1.80;1.00;;;24.20;53.40;;;;;;5003752;28;20040;-64
2021/08/04 05:33:16;;;;;;;1.42;0.90;;;24.20;53.40;;;;;;5020210;28;20778;-63
2021/08/04 05:35:41;;;;;;;1.83;1.00;;;24.20;53.40;;;;;;5021838;28;20061;-63
2021/08/04 05:38:07;;;;;;;1.58;0.90;;;24.20;53.40;;;;;;5022457;28;20087;-62
2021/08/04 05:40:33;;;;;;;1.50;0.80;;;24.20;53.40;;;;;;5021181;28;20060;-64
2021/08/04 05:42:58;;;;;;;1.27;0.90;;;24.20;53.40;;;;;;5007640;28;20038;-62
2021/08/04 05:45:24;;;;;;;1.33;0.90;;;24.20;53.40;;;;;;5010989;28;20038;-61
2021/08/04 05:47:50;;;;;;;1.17;0.77;;;24.20;53.40;;;;;;5010283;28;20087;-62
2021/08/04 05:50:15;;;;;;;1.27;0.70;;;24.20;53.50;;;;;;5021471;28;20029;-60
2021/08/04 05:52:41;;;;;;;1.00;0.90;;;24.20;53.50;;;;;;5015101;28;20037;-60
2021/08/04 05:55:07;;;;;;;1.20;0.90;;;24.20;53.50;;;;;;5020311;28;20053;-63
2021/08/04 05:57:34;;;;;;;1.10;0.70;;;24.20;53.50;;;;;;5013044;28;20552;-64
2021/08/04 05:59:59;;;;;;;2.03;1.10;;;24.20;53.50;;;;;;5005835;28;20073;-62
2021/08/04 06:02:25;;;;;;;2.08;0.93;;;24.20;53.50;;;;;;5016013;28;20103;-62
2021/08/04 06:04:51;;;;;;;2.10;1.05;;;24.20;53.50;;;;;;5004540;28;20041;-62
2021/08/04 06:07:17;;;;;;;1.48;0.90;;;24.20;53.50;;;;;;5019862;28;20057;-62
2021/08/04 06:09:43;;;;;;;1.63;1.00;;;24.20;53.60;;;;;;5014285;28;20020;-62
2021/08/04 06:12:09;;;;;;;1.20;0.90;;;24.10;53.60;;;;;;5021975;28;20025;-64
2021/08/04 06:14:36;;;;;;;1.52;0.93;;;24.20;53.60;;;;;;5003254;28;20482;-61
2021/08/04 06:17:01;;;;;;;1.27;0.90;;;24.20;53.60;;;;;;5004061;28;20101;-62
2021/08/04 06:19:27;;;;;;;1.23;0.80;;;24.20;53.60;;;;;;5005064;28;20164;-62
2021/08/04 06:21:53;;;;;;;0.98;0.80;;;24.20;53.60;;;;;;5018588;28;20034;-62
2021/08/04 06:24:19;;;;;;;1.08;0.88;;;24.10;53.60;;;;;;5019483;28;20026;-62
2021/08/04 06:26:44;;;;;;;1.23;0.90;;;24.10;53.60;;;;;;5017351;28;20036;-64
2021/08/04 06:29:10;;;;;;;1.67;0.80;;;24.10;53.60;;;;;;5018286;28;20038;-62
2021/08/04 06:31:35;;;;;;;1.45;0.90;;;24.10;53.60;;;;;;5023009;28;20037;-62
2021/08/04 06:34:01;;;;;;;1.63;0.90;;;24.10;53.60;;;;;;5028210;28;20465;-63
2021/08/04 06:36:27;;;;;;;1.27;0.90;;;24.20;53.60;;;;;;5026815;28;20034;-59
2021/08/04 06:38:52;;;;;;;1.90;0.90;;;24.10;53.60;;;;;;5025713;28;20037;-63
2021/08/04 06:41:18;;;;;;;1.02;0.80;;;24.10;53.60;;;;;;5029300;28;20028;-58
2021/08/04 06:43:43;;;;;;;1.50;0.90;;;24.10;53.60;;;;;;5028006;28;20033;-58
2021/08/04 06:46:13;;;;;;;1.13;0.80;;;24.10;53.60;;;;;;5031409;28;20033;-64
2021/08/04 06:48:39;;;;;;;1.65;0.93;;;24.10;53.60;;;;;;5024481;28;20091;-60
2021/08/04 06:51:05;;;;;;;1.45;0.90;;;24.10;53.60;;;;;;5027844;28;20416;-61
2021/08/04 06:53:31;;;;;;;1.42;0.80;;;24.10;53.60;;;;;;5032827;28;20485;-61
2021/08/04 06:55:56;;;;;;;1.70;1.00;;;24.10;53.70;;;;;;5035783;28;20104;-61
2021/08/04 06:58:22;;;;;;;1.20;0.80;;;24.10;53.60;;;;;;5029954;28;20029;-62
2021/08/04 07:00:48;;;;;;;1.27;0.93;;;24.10;53.60;;;;;;5025759;28;20064;-63
2021/08/04 07:03:13;;;;;;;1.45;1.00;;;24.10;53.60;;;;;;5024220;28;20528;-59
2021/08/04 07:05:42;;;;;;;1.65;0.90;;;24.10;53.60;;;;;;5028911;28;20090;-59
2021/08/04 07:08:07;;;;;;;2.40;0.90;;;24.10;53.60;;;;;;5021968;28;20052;-63
2021/08/04 07:10:33;;;;;;;1.52;0.93;;;24.10;53.60;;;;;;5021900;28;20030;-61
2021/08/04 07:12:59;;;;;;;1.35;0.80;;;24.10;53.60;;;;;;5020882;28;20527;-61
2021/08/04 07:15:25;;;;;;;1.35;0.98;;;24.10;53.60;;;;;;5022243;28;20037;-62
2021/08/04 07:17:51;;;;;;;1.80;1.00;;;24.10;53.60;;;;;;5025264;28;20604;-63
2021/08/04 07:20:20;;;;;;;1.38;0.90;;;24.20;53.60;;;;;;5024786;28;20025;-63
2021/08/04 07:22:46;;;;;;;1.35;0.95;;;24.10;53.50;;;;;;5028429;28;20041;-62
2021/08/04 07:25:13;;;;;;;1.45;0.90;;;24.10;53.50;;;;;;5023197;28;20068;-63
2021/08/04 07:27:39;;;;;;;1.27;0.88;;;24.10;53.50;;;;;;5031691;28;20094;-61
2021/08/04 07:30:07;;;;;;;1.50;1.05;;;24.10;53.50;;;;;;5031709;28;20116;-64
2021/08/04 07:32:34;;;;;;;1.50;1.00;;;24.10;53.50;;;;;;5027392;28;20449;-63
2021/08/04 07:35:00;;;;;;;1.30;0.70;;;24.10;53.60;;;;;;5028015;28;20025;-61
2021/08/04 07:37:30;;;;;;;0.88;0.80;;;24.10;53.50;;;;;;5025211;28;20464;-60
2021/08/04 07:39:56;;;;;;;1.00;0.80;;;24.10;53.50;;;;;;5024076;28;20511;-61
2021/08/04 07:42:22;;;;;;;1.33;0.90;;;24.10;53.50;;;;;;5025585;28;20066;-63
2021/08/04 07:44:48;;;;;;;0.70;0.70;;;24.10;53.50;;;;;;5020473;28;20025;-61
2021/08/04 07:47:14;;;;;;;1.80;0.90;;;24.10;53.50;;;;;;5027235;28;20489;-62
2021/08/04 07:49:40;;;;;;;1.02;0.77;;;24.10;53.50;;;;;;5023707;28;20013;-64
2021/08/04 07:52:06;;;;;;;1.17;0.80;;;24.10;53.50;;;;;;5024120;28;20126;-61
2021/08/04 07:54:31;;;;;;;1.23;0.73;;;24.10;53.50;;;;;;5022160;28;20109;-63
2021/08/04 07:56:57;;;;;;;1.17;0.80;;;24.10;53.50;;;;;;5027835;28;20096;-63
2021/08/04 07:59:22;;;;;;;1.40;0.95;;;24.10;53.50;;;;;;5028720;28;20060;-63
2021/08/04 08:01:48;;;;;;;0.70;0.70;;;24.10;53.50;;;;;;5024781;28;20541;-60
2021/08/04 08:04:14;;;;;;;0.82;0.80;;;24.10;53.40;;;;;;5027233;28;20070;-61
2021/08/04 08:06:40;;;;;;;1.52;0.90;;;24.10;53.40;;;;;;5032557;28;20866;-61
2021/08/04 08:09:06;;;;;;;1.30;0.90;;;24.10;53.40;;;;;;5026464;28;20040;-61
2021/08/04 08:11:32;;;;;;;1.40;0.95;;;24.10;53.40;;;;;;5023284;28;20032;-54
2021/08/04 08:13:57;;;;;;;1.30;0.80;;;24.10;53.40;;;;;;5028785;28;20035;-64
2021/08/04 08:16:23;;;;;;;1.35;0.82;;;24.20;53.50;;;;;;5022351;28;20032;-60
2021/08/04 08:18:49;;;;;;;1.02;0.80;;;24.10;53.40;;;;;;5023563;28;20056;-60
2021/08/04 08:21:15;;;;;;;1.13;0.80;;;24.10;53.40;;;;;;5022123;28;20367;-61
2021/08/04 08:23:40;;;;;;;1.42;0.98;;;24.10;53.40;;;;;;5026684;28;20136;-62
2021/08/04 08:26:06;;;;;;;1.58;1.05;;;24.10;53.40;;;;;;5024086;28;20928;-61
2021/08/04 08:28:32;;;;;;;1.42;0.90;;;24.10;53.40;;;;;;5020496;28;20116;-57
2021/08/04 08:30:57;;;;;;;1.30;1.08;;;24.20;53.40;;;;;;5027636;28;20465;-63
2021/08/04 08:33:23;;;;;;;1.60;1.00;;;24.10;53.40;;;;;;5021638;28;20026;-60
2021/08/04 08:35:48;;;;;;;1.38;1.00;;;24.10;53.40;;;;;;5027473;28;20041;-60
2021/08/04 08:38:14;;;;;;;1.63;0.88;;;24.10;53.40;;;;;;5035090;28;20045;-63
2021/08/04 08:40:40;;;;;;;1.48;0.88;;;24.10;53.40;;;;;;5036195;28;20032;-59
2021/08/04 08:43:06;;;;;;;1.75;0.90;;;24.10;53.30;;;;;;5030915;28;20533;-61
2021/08/04 08:45:32;;;;;;;1.55;0.95;;;24.10;53.40;;;;;;5026209;28;20739;-59
2021/08/04 08:47:57;;;;;;;0.80;0.80;;;24.10;53.40;;;;;;5022734;28;20461;-60
2021/08/04 08:50:26;;;;;;;1.15;0.90;;;24.10;53.30;;;;;;5041727;28;20104;-60
2021/08/04 08:52:55;;;;;;;1.13;0.80;;;24.10;53.40;;;;;;5026129;28;20042;-60
2021/08/04 08:55:21;;;;;;;1.25;0.82;;;24.20;53.40;;;;;;5026687;28;20131;-60
2021/08/04 08:57:47;;;;;;;1.33;0.90;;;24.10;53.30;;;;;;5023130;28;20037;-60
2021/08/04 09:00:14;;;;;;;1.40;0.80;;;24.10;53.40;;;;;;5026187;28;20542;-60
2021/08/04 09:02:42;;;;;;;1.45;1.10;;;24.10;53.40;;;;;;5030031;28;20033;-60
2021/08/04 09:05:09;;;;;;;1.27;0.90;;;24.10;53.30;;;;;;5025564;28;20030;-59
2021/08/04 09:07:39;;;;;;;1.40;0.90;;;24.10;53.40;;;;;;5019795;28;20361;-59
2021/08/04 09:10:21;;;;;;;1.20;0.80;;;24.10;53.40;;;;;;5019534;28;20045;-62
2021/08/04 09:12:49;;;;;;;1.10;0.82;;;24.10;53.30;;;;;;5018197;28;20126;-60
2021/08/04 09:15:28;;;;;;;1.35;0.80;;;24.10;53.40;;;;;;5024289;28;20025;-61
2021/08/04 09:18:01;;;;;;;0.93;0.82;;;24.10;53.30;;;;;;5020021;28;20032;-60
2021/08/04 09:20:27;;;;;;;1.10;0.80;;;24.10;53.30;;;;;;5020521;28;20102;-59
2021/08/04 09:23:01;;;;;;;2.08;0.90;;;24.10;53.30;;;;;;5020695;28;20040;-59
2021/08/04 09:25:27;;;;;;;1.10;0.80;;;24.10;53.30;;;;;;5021856;28;20033;-60
2021/08/04 09:27:56;;;;;;;1.42;0.90;;;24.10;53.30;;;;;;5021803;28;20029;-60
2021/08/04 09:30:27;;;;;;;1.50;0.90;;;24.10;53.30;;;;;;5021814;28;20053;-60
2021/08/04 09:33:14;;;;;;;1.52;0.95;;;24.10;53.30;;;;;;5023168;28;20353;-60
2021/08/04 09:35:44;;;;;;;2.25;0.90;;;24.10;53.30;;;;;;5022578;28;20038;-62
2021/08/04 09:38:10;;;;;;;1.17;0.90;;;24.10;53.30;;;;;;5030949;28;20029;-60
2021/08/04 09:40:35;;;;;;;1.20;0.85;;;24.10;53.30;;;;;;5018312;28;20029;-60
2021/08/04 09:43:01;;;;;;;1.25;0.88;;;24.10;53.30;;;;;;5020470;28;20509;-60
2021/08/04 09:45:42;;;;;;;2.65;1.00;;;24.20;53.40;;;;;;5014091;28;20080;-60
2021/08/04 09:48:12;;;;;;;1.27;0.90;;;24.20;53.40;;;;;;5012401;28;20038;-60
2021/08/04 09:51:02;;;;;;;1.02;0.80;;;24.20;53.30;;;;;;5023035;28;20052;-62
2021/08/04 09:53:35;;;;;;;2.15;1.00;;;24.20;53.40;;;;;;5020272;28;20107;-59
2021/08/04 09:56:18;;;;;;;1.40;0.90;;;24.20;53.40;;;;;;5025033;28;20723;-60
2021/08/04 09:58:52;;;;;;;1.77;0.90;;;24.20;53.40;;;;;;5020359;28;20103;-60
2021/08/04 10:01:36;;;;;;;1.20;0.80;;;24.20;53.30;;;;;;5020986;28;20040;-61
2021/08/04 10:04:10;;;;;;;1.38;0.90;;;24.20;53.30;;;;;;5023744;28;20032;-62
2021/08/04 10:06:40;;;;;;;1.05;0.80;;;24.20;53.30;;;;;;5027424;28;20029;-60
2021/08/04 10:09:10;;;;;;;1.10;0.85;;;24.20;53.20;;;;;;5034995;28;20029;-65
2021/08/04 10:11:39;;;;;;;;;;;24.20;53.20;;;;;;5026317;28;20111;-61
2021/08/04 10:14:05;;;;;;;1.13;0.80;;;24.20;53.50;;;;;;5035226;28;19944;-62
2021/08/04 10:16:33;;;;;;;1.33;0.80;;;24.20;54.00;;;;;;5022558;28;20029;-60
2021/08/04 10:19:01;;;;;;;1.53;0.80;;;24.20;53.60;;;;;;5022142;28;20132;-60
2021/08/04 10:21:27;;;;;;;1.17;0.80;;;24.30;53.70;;;;;;5022350;28;20296;-60
2021/08/04 10:23:53;;;;;;;1.08;0.95;;;24.30;53.60;;;;;;5021443;28;20485;-60
2021/08/04 10:26:21;;;;;;;1.65;0.90;;;24.30;53.50;;;;;;5018084;28;20044;-62
2021/08/04 10:28:51;;;;;;;1.13;0.85;;;24.40;53.50;;;;;;5024992;28;20029;-60
2021/08/04 10:31:18;;;;;;;1.20;1.00;;;24.40;54.00;;;;;;5024549;28;20122;-59
2021/08/04 10:33:43;;;;;;;1.90;1.10;;;24.40;53.50;;;;;;5026641;28;20026;-60
2021/08/04 10:36:14;;;;;;;1.52;0.90;;;24.50;53.40;;;;;;5025512;28;20034;-58
2021/08/04 10:38:49;;;;;;;2.72;1.00;;;24.50;53.30;;;;;;5022352;28;20439;-59
2021/08/04 10:41:21;;;;;;;2.90;1.15;;;24.50;53.30;;;;;;5024198;28;20037;-62
2021/08/04 10:43:52;;;;;;;1.83;1.00;;;24.60;53.20;;;;;;5025716;28;20029;-57
2021/08/04 10:46:33;;;;;;;1.75;1.05;;;24.60;53.20;;;;;;5009317;28;20563;-59
2021/08/04 10:49:04;;;;;;;4.18;0.90;;;24.60;53.20;;;;;;5018489;28;20421;-60
2021/08/04 10:51:31;;;;;;;1.52;0.90;;;24.60;53.10;;;;;;5011876;28;20056;-62
2021/08/04 10:54:02;;;;;;;1.65;1.00;;;24.60;53.60;;;;;;5024153;28;20261;-60
2021/08/04 10:56:39;;;;;;;1.02;0.80;;;24.70;53.10;;;;;;5016794;28;20041;-61
2021/08/04 10:59:08;;;;;;;1.27;0.90;;;24.70;53.00;;;;;;5019871;28;20045;-60
2021/08/04 11:01:35;;;;;;;1.58;1.08;;;24.70;53.00;;;;;;5010172;28;20038;-61
2021/08/04 11:04:00;;;;;;;1.50;0.95;;;24.70;53.00;;;;;;5022459;28;20202;-58
2021/08/04 11:06:26;;;;;;;1.65;1.00;;;24.80;52.90;;;;;;5016707;28;20037;-61
2021/08/04 11:09:17;;;;;;;1.65;1.00;;;24.80;52.90;;;;;;5026466;28;20030;-60
2021/08/04 11:12:00;;;;;;;1.48;1.00;;;24.80;52.80;;;;;;5025210;28;20785;-63
2021/08/04 11:15:09;;;;;;;1.38;0.82;;;24.80;52.70;;;;;;5021631;28;20056;-61
2021/08/04 11:17:56;;;;;;;1.10;0.90;;;24.80;52.70;;;;;;5021421;28;20037;-62
2021/08/04 11:20:21;;;;;;;1.10;0.90;;;24.90;52.70;;;;;;5022241;28;20385;-61
2021/08/04 11:22:49;;;;;;;1.75;1.05;;;24.90;52.70;;;;;;5021191;28;20030;-60
2021/08/04 11:25:24;;;;;;;2.63;1.20;;;24.90;52.70;;;;;;5010510;28;20052;-62
2021/08/04 11:27:52;;;;;;;2.80;1.15;;;24.90;52.60;;;;;;5022470;28;20044;-58
2021/08/04 11:30:44;;;;;;;3.63;1.45;;;24.90;52.60;;;;;;5021144;28;20028;-63
2021/08/04 11:33:19;;;;;;;2.78;1.20;;;24.90;52.60;;;;;;5025589;28;20025;-62
2021/08/04 11:35:46;;;;;;;1.80;0.98;;;25.00;52.60;;;;;;5022337;28;20558;-61
2021/08/04 11:38:12;;;;;;;2.20;1.30;;;25.00;52.50;;;;;;5024447;28;20747;-63
2021/08/04 11:40:38;;;;;;;3.42;1.48;;;25.00;52.50;;;;;;5022318;28;20075;-62
2021/08/04 11:43:03;;;;;;;2.58;1.30;;;25.00;52.50;;;;;;5030878;28;20128;-63
2021/08/04 11:45:30;;;;;;;3.58;1.70;;;25.00;52.50;;;;;;5025336;28;20043;-62
2021/08/04 11:47:56;;;;;;;3.40;1.50;;;25.00;52.50;;;;;;5020480;28;20449;-62
2021/08/04 11:50:21;;;;;;;2.28;1.13;;;25.00;52.50;;;;;;5016349;28;20566;-61
2021/08/04 11:52:48;;;;;;;3.72;1.50;;;25.00;52.50;;;;;;5020134;28;20033;-62
2021/08/04 11:55:15;;;;;;;3.50;1.38;;;25.00;52.40;;;;;;5020809;28;20500;-61
2021/08/04 11:57:43;;;;;;;2.72;1.38;;;25.00;52.40;;;;;;5022771;28;20445;-62
2021/08/04 12:00:18;;;;;;;1.98;1.17;;;25.00;52.40;;;;;;5017634;28;20038;-63
2021/08/04 12:02:45;;;;;;;3.50;1.30;;;25.00;52.40;;;;;;5011788;28;20136;-62
2021/08/04 12:05:12;;;;;;;2.33;1.10;;;25.00;52.40;;;;;;5014421;28;20293;-63
2021/08/04 12:07:38;;;;;;;2.30;1.20;;;25.00;52.30;;;;;;5018987;28;20489;-62
2021/08/04 12:10:24;;;;;;;2.05;1.27;;;25.00;52.10;;;;;;5021129;28;20108;-62
2021/08/04 12:12:52;;;;;;;3.08;1.20;;;25.00;51.80;;;;;;5018089;28;20021;-61
2021/08/04 12:15:25;;;;;;;2.22;1.30;;;25.00;51.50;;;;;;5019029;28;20095;-62
2021/08/04 12:18:04;;;;;;;4.35;1.33;;;25.00;51.30;;;;;;5018395;28;20041;-62
2021/08/04 12:20:32;;;;;;;2.58;1.20;;;25.00;51.20;;;;;;5019356;28;20037;-62
2021/08/04 12:23:06;;;;;;;2.47;1.08;;;25.00;51.30;;;;;;5013740;28;20041;-60
2021/08/04 12:25:35;;;;;;;1.50;1.00;;;25.00;51.20;;;;;;5024466;28;20037;-62
2021/08/04 12:28:00;;;;;;;1.63;1.00;;;25.00;51.30;;;;;;5018804;28;20061;-62
2021/08/04 12:30:31;;;;;;;2.42;1.40;;;25.10;51.40;;;;;;5018376;28;21722;-62
2021/08/04 12:33:03;;;;;;;1.67;1.05;;;25.10;51.50;;;;;;5014261;28;20028;-63
2021/08/04 12:35:41;;;;;;;2.22;1.20;;;25.10;51.50;;;;;;5018011;28;20053;-60
2021/08/04 12:38:15;;;;;;;1.88;0.95;;;25.10;51.50;;;;;;5020028;28;20087;-62
2021/08/04 12:40:45;;;;;;;1.77;1.00;;;25.20;51.50;;;;;;5014793;28;20037;-62
2021/08/04 12:43:12;;;;;;;2.53;1.00;;;25.20;51.50;;;;;;5015158;28;20442;-62
2021/08/04 12:45:46;;;;;;;3.60;0.93;;;25.10;51.40;;;;;;5017693;28;20060;-63
2021/08/04 12:48:11;;;;;;;2.00;0.98;;;25.20;51.50;;;;;;5016703;28;20055;-63
2021/08/04 12:50:58;;;;;;;1.80;1.10;;;25.20;51.50;;;;;;5016790;28;20353;-62
2021/08/04 12:53:30;;;;;;;2.53;1.00;;;25.20;51.50;;;;;;5016827;28;20064;-62